Time;durP1;ratioP1;P1;durP2;ratioP2;P2;SDS_P1;SDS_P2;PMS_P1;PMS_P2;Temp;Humidity;BMP_temperature;BMP_pressure;BME280_temperature;BME280_humidity;BME280_pressure;Samples;Min_cycle;Max_cycle;Signal;HPM_P1;HPM_P2
2022/12/26 00:01:41;;;;;;;4.72;4.05;;;11.30;99.90;;;;;;5052236;28;20966;-57
2022/12/26 00:04:08;;;;;;;7.10;4.95;;;11.30;99.90;;;;;;5049679;28;20473;-59
2022/12/26 00:06:35;;;;;;;7.28;5.03;;;11.30;99.90;;;;;;5049823;28;20428;-58
2022/12/26 00:09:04;;;;;;;8.55;5.60;;;11.30;99.90;;;;;;5057631;28;20411;-54
2022/12/26 00:11:30;;;;;;;8.48;5.80;;;11.30;99.90;;;;;;5064922;28;20423;-54
2022/12/26 00:13:59;;;;;;;7.38;5.00;;;11.30;99.90;;;;;;5070266;28;20426;-54
2022/12/26 00:16:27;;;;;;;7.75;5.13;;;11.20;99.90;;;;;;5070218;28;20422;-52
2022/12/26 00:18:56;;;;;;;8.75;5.53;;;11.10;99.90;;;;;;5070447;28;20464;-53
2022/12/26 00:21:25;;;;;;;10.50;5.70;;;11.20;99.90;;;;;;5070400;28;20428;-52
2022/12/26 00:23:53;;;;;;;8.68;6.28;;;11.30;99.90;;;;;;5070323;28;20459;-52
2022/12/26 00:26:21;;;;;;;8.05;6.15;;;11.20;99.90;;;;;;5066003;28;20450;-52
2022/12/26 00:28:48;;;;;;;12.30;7.30;;;11.20;99.90;;;;;;5061606;28;20412;-52
2022/12/26 00:31:16;;;;;;;10.10;7.80;;;11.10;99.90;;;;;;5070512;28;20415;-50
2022/12/26 00:33:43;;;;;;;11.77;7.70;;;11.10;99.90;;;;;;5070432;28;20481;-51
2022/12/26 00:36:13;;;;;;;11.68;8.00;;;11.20;99.90;;;;;;5066490;28;20847;-56
2022/12/26 00:38:41;;;;;;;14.52;9.13;;;11.20;99.90;;;;;;5050322;28;20508;-50
2022/12/26 00:41:10;;;;;;;12.07;8.80;;;11.10;99.90;;;;;;5049972;28;20462;-51
2022/12/26 00:43:36;;;;;;;11.82;8.18;;;11.20;99.90;;;;;;5050453;28;20941;-50
2022/12/26 00:46:04;;;;;;;13.60;8.55;;;11.30;99.90;;;;;;5050076;28;20970;-48
2022/12/26 00:48:31;;;;;;;12.50;8.30;;;11.30;99.90;;;;;;5050383;28;20508;-51
2022/12/26 00:50:58;;;;;;;11.93;7.93;;;11.30;99.90;;;;;;5050112;28;20405;-53
2022/12/26 00:53:26;;;;;;;11.27;7.53;;;11.30;99.90;;;;;;5050215;28;20467;-53
2022/12/26 00:55:53;;;;;;;10.23;7.00;;;11.30;99.90;;;;;;5050676;28;20479;-49
2022/12/26 00:58:22;;;;;;;8.25;6.00;;;11.20;99.90;;;;;;5061580;28;20430;-48
2022/12/26 01:00:49;;;;;;;10.27;5.90;;;11.20;99.90;;;;;;5070045;28;20489;-48
2022/12/26 01:03:16;;;;;;;8.30;5.28;;;11.20;99.90;;;;;;5070174;28;20418;-52
2022/12/26 01:05:44;;;;;;;9.82;5.32;;;11.20;99.90;;;;;;5070049;28;20489;-52
2022/12/26 01:08:11;;;;;;;7.32;5.00;;;11.10;99.90;;;;;;5069791;28;20411;-51
2022/12/26 01:10:42;;;;;;;7.97;5.57;;;11.10;99.90;;;;;;5073462;28;20420;-48
2022/12/26 01:13:09;;;;;;;8.43;5.88;;;11.00;99.90;;;;;;5073907;28;20455;-48
2022/12/26 01:15:36;;;;;;;9.57;6.15;;;11.10;99.90;;;;;;5073593;28;20415;-56
2022/12/26 01:18:03;;;;;;;9.27;6.55;;;11.10;99.90;;;;;;5073362;28;20895;-51
2022/12/26 01:20:30;;;;;;;9.00;6.77;;;11.10;99.90;;;;;;5073429;28;20426;-51
2022/12/26 01:22:57;;;;;;;10.10;7.32;;;11.00;99.90;;;;;;5073605;28;20411;-55
2022/12/26 01:25:23;;;;;;;11.10;7.43;;;11.00;99.90;;;;;;5073697;28;20419;-51
2022/12/26 01:27:51;;;;;;;9.18;7.50;;;11.00;99.90;;;;;;5064431;28;20412;-53
2022/12/26 01:30:18;;;;;;;9.15;7.20;;;11.10;99.90;;;;;;5053355;28;20920;-49
2022/12/26 01:32:45;;;;;;;9.38;7.22;;;11.10;99.90;;;;;;5053204;28;20428;-51
2022/12/26 01:35:11;;;;;;;9.67;7.20;;;11.10;99.90;;;;;;5045010;28;20532;-54
2022/12/26 01:37:38;;;;;;;8.02;6.13;;;11.10;99.90;;;;;;5053163;28;20467;-54
2022/12/26 01:40:06;;;;;;;5.82;4.63;;;11.00;99.90;;;;;;5053250;28;20417;-54
2022/12/26 01:42:37;;;;;;;5.80;4.30;;;11.00;99.90;;;;;;5053258;28;20908;-50
2022/12/26 01:45:17;;;;;;;4.55;3.63;;;11.00;99.90;;;;;;5053318;28;20414;-54
2022/12/26 01:47:47;;;;;;;6.93;3.50;;;11.00;99.90;;;;;;5052886;28;20471;-53
2022/12/26 01:50:34;;;;;;;4.30;3.25;;;10.90;99.90;;;;;;5053202;28;20413;-50
2022/12/26 01:53:08;;;;;;;3.87;3.07;;;10.90;99.90;;;;;;5050594;28;20448;-52
2022/12/26 01:55:36;;;;;;;4.05;2.97;;;10.90;99.90;;;;;;5052823;28;20948;-53
2022/12/26 01:58:07;;;;;;;4.93;3.20;;;11.00;99.90;;;;;;5063204;28;20421;-54
2022/12/26 02:00:37;;;;;;;3.80;3.10;;;10.90;99.90;;;;;;5072831;28;20481;-54
2022/12/26 02:05:50;;;;;;;4.40;3.57;;;10.80;99.90;;;;;;5072773;28;20429;-51
2022/12/26 02:08:20;;;;;;;4.32;3.65;;;10.90;99.90;;;;;;5072440;28;20461;-49
2022/12/26 02:10:51;;;;;;;3.72;3.30;;;11.00;99.90;;;;;;5072622;28;20416;-53
2022/12/26 02:13:18;;;;;;;4.20;3.20;;;10.90;99.90;;;;;;5072897;28;20438;-53
2022/12/26 02:15:48;;;;;;;4.75;3.50;;;10.90;99.90;;;;;;5072753;28;20820;-51
2022/12/26 02:18:14;;;;;;;4.18;3.50;;;11.00;99.90;;;;;;5072518;28;20411;-53
2022/12/26 02:20:49;;;;;;;4.25;3.60;;;11.00;99.90;;;;;;5072140;28;20415;-56
2022/12/26 02:23:44;;;;;;;3.97;3.20;;;10.90;99.90;;;;;;5072570;28;20860;-55
2022/12/26 02:26:42;;;;;;;6.03;3.30;;;10.90;99.90;;;;;;5068920;28;20419;-51
2022/12/26 02:29:42;;;;;;;6.05;3.30;;;11.00;99.90;;;;;;5060699;28;20420;-51
2022/12/26 02:32:20;;;;;;;3.92;3.25;;;10.90;99.90;;;;;;5052635;28;20435;-53
2022/12/26 02:34:56;;;;;;;4.63;3.00;;;10.90;99.90;;;;;;5052537;28;20973;-53
2022/12/26 02:37:43;;;;;;;4.00;2.88;;;10.90;99.90;;;;;;5052234;28;20468;-53
2022/12/26 02:40:25;;;;;;;3.55;3.20;;;10.80;99.90;;;;;;5052350;28;20877;-56
2022/12/26 02:42:58;;;;;;;4.85;3.13;;;10.70;99.90;;;;;;5052279;28;20428;-54
2022/12/26 02:48:23;;;;;;;4.93;3.20;;;10.90;99.90;;;;;;5051825;28;20962;-51
2022/12/26 03:13:37;;;;;;;5.28;3.70;;;10.80;99.90;;;;;;5071378;28;20474;-50
2022/12/26 03:19:02;;;;;;;6.20;4.05;;;10.80;99.90;;;;;;4996337;28;20446;-54
2022/12/26 03:21:35;;;;;;;5.15;4.05;;;10.80;99.90;;;;;;5071198;28;20423;-56
2022/12/26 03:24:02;;;;;;;5.53;4.28;;;10.80;99.90;;;;;;5071304;28;20951;-52
2022/12/26 03:26:40;;;;;;;5.60;3.83;;;10.70;99.90;;;;;;5065412;28;20413;-51
2022/12/26 03:31:53;;;;;;;6.07;4.20;;;10.80;99.90;;;;;;5050541;28;20559;-54
2022/12/26 03:34:20;;;;;;;8.52;4.32;;;10.70;99.90;;;;;;5051038;28;20883;-53
2022/12/26 03:37:01;;;;;;;4.90;3.80;;;10.80;99.90;;;;;;5051027;28;20467;-53
2022/12/26 04:19:42;;;;;;;6.25;4.90;;;10.40;99.90;;;;;;5070588;28;20430;-54
2022/12/26 04:44:39;;;;;;;6.93;5.57;;;10.30;99.90;;;;;;5054428;28;20400;-53
2022/12/26 04:47:05;;;;;;;6.20;5.57;;;10.40;99.90;;;;;;5054088;28;20416;-50
2022/12/26 04:52:53;;;;;;;6.65;5.22;;;10.20;99.90;;;;;;5054213;28;20403;-48
2022/12/26 04:55:13;;;;;;;6.28;5.68;;;10.30;99.90;;;;;;5054072;28;20432;-54
2022/12/26 04:57:40;;;;;;;7.22;6.30;;;10.00;99.90;;;;;;5061960;28;20416;-48
2022/12/26 05:00:09;;;;;;;6.50;5.70;;;10.00;99.90;;;;;;5073570;28;20415;-50
2022/12/26 05:10:49;;;;;;;8.00;6.30;;;9.90;99.90;;;;;;5073742;28;20407;-50
2022/12/26 05:13:15;;;;;;;6.68;5.43;;;10.00;99.90;;;;;;5073651;28;20403;-52
2022/12/26 05:29:26;;;;;;;7.27;5.67;;;9.80;99.90;;;;;;5060770;28;20471;-50
2022/12/26 05:31:54;;;;;;;6.82;5.78;;;9.80;99.90;;;;;;5073593;28;20408;-54
2022/12/26 05:34:20;;;;;;;6.55;4.82;;;9.80;99.90;;;;;;5073332;28;20465;-52
2022/12/26 05:36:49;;;;;;;5.80;5.20;;;9.70;99.90;;;;;;5073282;28;20415;-50
2022/12/26 05:39:16;;;;;;;7.10;4.90;;;9.80;99.90;;;;;;5073082;28;20415;-50
2022/12/26 05:41:43;;;;;;;5.47;4.63;;;9.80;99.90;;;;;;5073421;28;20435;-51
2022/12/26 05:44:10;;;;;;;5.78;4.72;;;9.80;99.90;;;;;;5073436;28;20415;-50
2022/12/26 05:46:37;;;;;;;5.93;4.70;;;9.80;99.90;;;;;;5072879;28;20464;-55
2022/12/26 05:49:06;;;;;;;6.22;4.65;;;9.80;99.90;;;;;;5073195;28;20998;-49
2022/12/26 05:51:32;;;;;;;6.50;4.60;;;9.80;99.90;;;;;;5072985;28;20407;-49
2022/12/26 05:53:59;;;;;;;6.00;4.95;;;9.80;99.90;;;;;;5072523;28;20833;-56
2022/12/26 05:56:26;;;;;;;5.50;4.53;;;9.90;99.90;;;;;;5067032;28;20900;-48
2022/12/26 05:58:58;;;;;;;5.97;4.75;;;9.90;99.90;;;;;;5061183;28;20413;-55
2022/12/26 06:01:26;;;;;;;6.38;4.82;;;9.90;99.90;;;;;;5052881;28;20765;-52
2022/12/26 06:03:55;;;;;;;7.40;4.72;;;9.90;99.90;;;;;;5053065;28;20797;-56
2022/12/26 06:06:24;;;;;;;5.72;4.75;;;9.90;99.90;;;;;;5052476;28;20843;-52
2022/12/26 06:08:52;;;;;;;6.55;5.00;;;9.90;99.90;;;;;;5052727;28;20896;-51
2022/12/26 06:11:20;;;;;;;6.90;5.65;;;9.90;99.90;;;;;;5052905;28;20474;-55
2022/12/26 06:13:47;;;;;;;5.75;5.15;;;9.90;99.90;;;;;;5052837;28;20422;-53
2022/12/26 06:16:16;;;;;;;7.07;5.00;;;9.90;99.90;;;;;;5052412;28;20515;-53
2022/12/26 06:18:43;;;;;;;7.00;5.03;;;9.90;99.90;;;;;;5052738;28;20414;-51
2022/12/26 06:21:12;;;;;;;6.90;4.88;;;10.00;99.90;;;;;;5052830;28;20422;-51
2022/12/26 06:23:40;;;;;;;9.48;5.00;;;10.00;99.90;;;;;;5052564;28;20884;-51
2022/12/26 06:26:09;;;;;;;6.28;5.43;;;10.00;99.90;;;;;;5055564;28;20419;-55
2022/12/26 06:28:36;;;;;;;6.32;5.18;;;9.90;99.90;;;;;;5064165;28;20468;-54
2022/12/26 06:31:03;;;;;;;7.00;5.50;;;10.00;99.90;;;;;;5072344;28;20426;-52
2022/12/26 06:33:30;;;;;;;8.02;5.80;;;10.00;99.90;;;;;;5072369;28;20929;-55
2022/12/26 06:36:03;;;;;;;6.53;5.78;;;10.00;99.90;;;;;;5072745;28;20457;-56
2022/12/26 06:38:29;;;;;;;6.78;5.78;;;9.90;99.90;;;;;;5072292;28;20424;-52
2022/12/26 06:40:57;;;;;;;8.73;6.80;;;9.80;99.90;;;;;;5072669;28;20411;-50
2022/12/26 06:43:24;;;;;;;8.45;6.90;;;9.80;99.90;;;;;;5072163;28;20419;-52
2022/12/26 06:45:55;;;;;;;9.38;6.80;;;9.80;99.90;;;;;;5071839;28;20415;-53
2022/12/26 06:48:21;;;;;;;10.02;6.47;;;9.80;99.90;;;;;;5071909;28;20894;-53
2022/12/26 06:50:48;;;;;;;8.48;6.60;;;9.80;99.90;;;;;;5071793;28;20790;-52
2022/12/26 06:53:15;;;;;;;8.93;6.53;;;9.80;99.90;;;;;;5071919;28;20404;-53
2022/12/26 06:55:41;;;;;;;9.43;6.77;;;9.90;99.90;;;;;;5071913;28;20412;-56
2022/12/26 06:58:10;;;;;;;8.98;6.82;;;9.90;99.90;;;;;;5060209;28;20471;-51
2022/12/26 07:00:37;;;;;;;6.85;5.80;;;9.80;99.90;;;;;;5051804;28;20417;-54
2022/12/26 07:03:04;;;;;;;8.15;6.20;;;9.90;99.90;;;;;;5051933;28;20834;-51
2022/12/26 07:05:30;;;;;;;7.95;5.95;;;9.90;99.90;;;;;;5051437;28;20420;-54
2022/12/26 07:07:57;;;;;;;6.70;5.10;;;9.90;99.90;;;;;;5050793;28;20896;-51
2022/12/26 07:10:24;;;;;;;8.15;4.60;;;10.00;99.90;;;;;;5051704;28;20417;-48
2022/12/26 07:12:50;;;;;;;5.97;4.65;;;9.90;99.90;;;;;;5051524;28;20412;-54
2022/12/26 07:15:18;;;;;;;7.07;4.70;;;10.00;99.90;;;;;;5051452;28;20420;-50
2022/12/26 07:17:45;;;;;;;6.47;4.40;;;10.00;99.90;;;;;;5051500;28;20452;-50
2022/12/26 07:20:12;;;;;;;5.95;4.35;;;10.00;99.90;;;;;;5051822;28;20408;-53
2022/12/26 07:22:39;;;;;;;5.85;4.30;;;10.10;99.90;;;;;;5051255;28;20434;-55
2022/12/26 07:25:06;;;;;;;6.38;4.00;;;10.10;99.90;;;;;;5051545;28;20409;-51
2022/12/26 07:27:33;;;;;;;6.72;4.38;;;10.20;99.90;;;;;;5059100;28;20421;-53
2022/12/26 07:30:00;;;;;;;5.90;4.90;;;10.20;99.90;;;;;;5069799;28;20416;-51
2022/12/26 07:32:28;;;;;;;6.72;5.10;;;10.10;99.90;;;;;;5071365;28;20412;-50
2022/12/26 07:34:55;;;;;;;8.30;4.87;;;10.20;99.90;;;;;;5061517;28;20957;-54
2022/12/26 07:37:21;;;;;;;9.35;6.30;;;10.20;99.90;;;;;;5050801;28;20500;-55
2022/12/26 07:39:48;;;;;;;8.05;6.22;;;10.10;99.90;;;;;;5050984;28;20447;-53
2022/12/26 07:42:15;;;;;;;9.10;7.13;;;10.10;99.90;;;;;;5050830;28;20904;-53
2022/12/26 07:44:41;;;;;;;8.25;6.60;;;10.00;99.90;;;;;;5050859;28;20888;-54
2022/12/26 07:47:08;;;;;;;9.10;6.57;;;10.10;99.90;;;;;;5050861;28;20413;-54
2022/12/26 07:49:36;;;;;;;8.27;6.90;;;10.10;99.90;;;;;;5050931;28;20830;-48
2022/12/26 07:52:03;;;;;;;8.05;6.75;;;10.10;99.90;;;;;;5050741;28;20459;-49
2022/12/26 07:54:31;;;;;;;7.73;6.23;;;10.00;99.90;;;;;;5051102;28;20603;-52
2022/12/26 07:56:58;;;;;;;7.88;5.68;;;10.00;99.90;;;;;;5058829;28;20784;-51
2022/12/26 07:59:24;;;;;;;6.78;5.50;;;10.10;99.90;;;;;;5064181;28;20913;-53
2022/12/26 08:01:51;;;;;;;6.53;5.30;;;10.10;99.90;;;;;;5070850;28;20487;-48
2022/12/26 08:04:18;;;;;;;5.75;5.15;;;10.20;99.90;;;;;;5070932;28;20439;-51
2022/12/26 08:06:47;;;;;;;8.25;6.05;;;10.10;99.90;;;;;;5070617;28;20473;-55
2022/12/26 08:09:15;;;;;;;8.00;5.70;;;10.00;99.90;;;;;;5071128;28;20495;-49
2022/12/26 08:11:42;;;;;;;6.30;5.28;;;10.10;99.90;;;;;;5070993;28;20838;-55
2022/12/26 08:14:11;;;;;;;6.53;5.30;;;10.10;99.90;;;;;;5070760;28;20802;-52
2022/12/26 08:16:41;;;;;;;5.93;4.40;;;10.10;99.90;;;;;;5070379;28;20468;-47
2022/12/26 08:19:08;;;;;;;7.30;4.67;;;10.10;99.90;;;;;;5070289;28;20462;-52
2022/12/26 08:21:35;;;;;;;4.63;4.10;;;10.10;99.90;;;;;;5070394;28;20810;-50
2022/12/26 08:24:03;;;;;;;3.95;3.55;;;10.20;99.90;;;;;;5070599;28;20473;-49
2022/12/26 08:26:30;;;;;;;5.38;3.35;;;10.20;99.90;;;;;;5064403;28;20424;-50
2022/12/26 08:28:57;;;;;;;5.15;3.40;;;10.20;99.90;;;;;;5058754;28;20413;-53
2022/12/26 08:31:24;;;;;;;3.20;2.72;;;10.20;99.90;;;;;;5050642;28;20421;-48
2022/12/26 08:33:50;;;;;;;3.85;2.47;;;10.10;99.90;;;;;;5050126;28;20413;-53
2022/12/26 08:36:18;;;;;;;3.42;2.55;;;10.20;99.90;;;;;;5050082;28;20409;-49
2022/12/26 08:38:44;;;;;;;3.97;2.85;;;10.20;99.90;;;;;;5050629;28;20459;-48
2022/12/26 08:41:12;;;;;;;3.35;2.28;;;10.20;99.90;;;;;;5051237;28;20417;-47
2022/12/26 08:43:39;;;;;;;3.88;2.30;;;10.20;99.90;;;;;;5050487;28;20824;-52
2022/12/26 08:46:08;;;;;;;3.58;2.17;;;10.10;99.90;;;;;;5050246;28;20421;-47
2022/12/26 08:48:35;;;;;;;3.92;1.90;;;10.10;99.90;;;;;;5050349;28;20467;-48
2022/12/26 08:51:05;;;;;;;2.97;2.00;;;10.20;99.90;;;;;;5050405;28;20942;-47
2022/12/26 08:53:34;;;;;;;2.90;2.10;;;10.20;99.90;;;;;;5050667;28;20405;-49
2022/12/26 08:56:02;;;;;;;2.22;1.83;;;10.20;99.90;;;;;;5052135;28;20444;-52
2022/12/26 08:58:30;;;;;;;1.83;1.58;;;10.10;99.90;;;;;;5061613;28;20411;-48
2022/12/26 09:01:06;;;;;;;2.92;1.40;;;10.00;99.90;;;;;;5070165;28;20411;-52
2022/12/26 09:03:33;;;;;;;2.38;1.63;;;10.10;99.90;;;;;;5070201;28;20427;-49
2022/12/26 09:06:00;;;;;;;3.30;1.50;;;10.00;99.90;;;;;;5070094;28;20416;-53
2022/12/26 09:08:28;;;;;;;3.08;1.33;;;10.10;99.90;;;;;;5070384;28;20416;-49
2022/12/26 09:10:55;;;;;;;2.90;1.40;;;10.00;99.90;;;;;;5070088;28;20411;-47
2022/12/26 09:13:22;;;;;;;3.30;1.47;;;10.00;99.90;;;;;;5070134;28;20506;-49
2022/12/26 09:15:50;;;;;;;2.45;1.40;;;10.10;99.90;;;;;;5052823;28;20417;-47
2022/12/26 09:18:17;;;;;;;4.97;1.83;;;10.10;99.90;;;;;;5049929;28;20469;-50
2022/12/26 09:20:44;;;;;;;3.00;1.50;;;10.10;99.90;;;;;;5049873;28;20424;-51
2022/12/26 09:23:10;;;;;;;2.97;1.40;;;10.00;99.90;;;;;;5049925;28;20429;-50
2022/12/26 09:25:37;;;;;;;2.58;1.50;;;10.00;99.90;;;;;;5050101;28;20451;-50
2022/12/26 09:28:04;;;;;;;2.22;1.33;;;10.00;99.90;;;;;;5060360;28;20417;-51
2022/12/26 09:30:31;;;;;;;2.75;1.25;;;10.10;99.90;;;;;;5071701;28;20416;-49
2022/12/26 09:32:59;;;;;;;1.92;1.30;;;10.00;99.90;;;;;;5073677;28;20473;-48
2022/12/26 09:35:25;;;;;;;2.67;1.40;;;10.10;99.90;;;;;;5067839;28;20417;-48
2022/12/26 09:37:52;;;;;;;2.70;1.20;;;10.10;99.90;;;;;;5053102;28;20424;-53
2022/12/26 09:40:22;;;;;;;2.60;1.10;;;10.10;99.90;;;;;;5053502;28;20409;-49
2022/12/26 09:43:00;;;;;;;2.72;1.35;;;10.10;99.90;;;;;;5053034;28;20441;-52
2022/12/26 09:45:37;;;;;;;2.38;1.40;;;10.10;99.90;;;;;;5053750;28;20414;-54
2022/12/26 09:48:13;;;;;;;2.97;2.10;;;10.10;99.90;;;;;;5053216;28;20512;-51
2022/12/26 09:50:41;;;;;;;3.70;1.60;;;10.10;99.90;;;;;;5053152;28;20420;-54
2022/12/26 09:53:14;;;;;;;4.97;1.40;;;10.20;99.90;;;;;;5053320;28;20410;-53
2022/12/26 09:55:45;;;;;;;3.00;1.40;;;10.20;99.90;;;;;;5052920;28;20413;-53
2022/12/26 09:58:22;;;;;;;4.00;1.70;;;10.30;99.90;;;;;;5060895;28;20471;-52
2022/12/26 10:00:52;;;;;;;2.17;1.20;;;10.30;99.90;;;;;;5053279;28;20467;-51
2022/12/26 10:03:21;;;;;;;3.50;1.52;;;10.20;99.90;;;;;;5053095;28;20479;-51
2022/12/26 10:06:00;;;;;;;4.85;1.50;;;10.20;99.90;;;;;;5052894;28;20406;-55
2022/12/26 10:08:40;;;;;;;2.10;1.15;;;10.30;99.90;;;;;;5053192;28;20425;-62
2022/12/26 10:11:14;;;;;;;2.03;1.20;;;10.20;99.90;;;;;;5050665;28;20425;-53
2022/12/26 10:13:49;;;;;;;2.63;1.20;;;10.30;99.90;;;;;;5052448;28;20470;-55
2022/12/26 10:16:20;;;;;;;3.03;1.60;;;10.30;99.90;;;;;;5045118;28;20819;-52
2022/12/26 10:18:59;;;;;;;2.83;1.50;;;10.30;99.90;;;;;;5052670;28;20808;-54
2022/12/26 10:21:40;;;;;;;2.83;1.50;;;10.30;99.90;;;;;;5052241;28;20428;-53
2022/12/26 10:24:14;;;;;;;2.97;1.50;;;10.30;99.90;;;;;;5052375;28;20464;-50
2022/12/26 10:26:43;;;;;;;3.00;1.42;;;10.30;99.90;;;;;;5059437;28;20996;-56
2022/12/26 10:29:18;;;;;;;2.95;1.10;;;10.30;99.90;;;;;;5053412;28;20981;-57
2022/12/26 10:31:49;;;;;;;5.00;1.95;;;10.30;99.90;;;;;;5064471;28;20411;-52
2022/12/26 10:34:22;;;;;;;2.75;1.40;;;10.30;99.90;;;;;;5052411;28;20413;-55
2022/12/26 10:36:54;;;;;;;2.83;1.40;;;10.30;99.90;;;;;;5052402;28;20750;-58
2022/12/26 10:39:24;;;;;;;5.55;1.63;;;10.30;99.90;;;;;;5051892;28;20424;-57
2022/12/26 10:41:54;;;;;;;3.20;1.40;;;10.20;99.90;;;;;;5052035;28;20896;-56
2022/12/26 10:44:21;;;;;;;3.67;1.30;;;10.30;99.90;;;;;;5052193;28;20448;-55
2022/12/26 10:47:05;;;;;;;4.95;1.42;;;10.30;99.90;;;;;;5051825;28;20418;-56
2022/12/26 10:49:34;;;;;;;3.00;1.05;;;10.30;99.90;;;;;;5051392;28;20421;-51
2022/12/26 10:52:02;;;;;;;2.22;1.00;;;10.30;99.90;;;;;;5051925;28;20417;-52
2022/12/26 10:54:29;;;;;;;3.65;1.25;;;10.40;99.90;;;;;;5051646;28;20920;-56
2022/12/26 10:56:58;;;;;;;5.85;1.40;;;10.40;99.90;;;;;;5056433;28;20473;-61
2022/12/26 10:59:36;;;;;;;4.15;1.40;;;10.40;99.90;;;;;;5065493;28;20412;-58
2022/12/26 11:02:21;;;;;;;3.53;1.35;;;10.60;99.90;;;;;;5071353;28;20825;-56
2022/12/26 11:05:04;;;;;;;3.37;1.30;;;10.50;99.90;;;;;;5071710;28;20481;-54
2022/12/26 11:07:33;;;;;;;4.05;1.40;;;10.50;99.90;;;;;;5071460;28;20446;-51
2022/12/26 11:10:01;;;;;;;3.17;1.20;;;10.60;99.90;;;;;;5071591;28;20477;-59
2022/12/26 11:12:37;;;;;;;3.95;1.30;;;10.60;99.90;;;;;;5071191;28;20443;-57
2022/12/26 11:15:07;;;;;;;2.80;1.30;;;10.60;99.90;;;;;;5071631;28;20553;-56
2022/12/26 11:17:41;;;;;;;2.95;1.35;;;10.60;99.90;;;;;;5069451;28;20419;-54
2022/12/26 11:20:30;;;;;;;4.60;1.40;;;10.60;99.90;;;;;;5071510;28;20408;-54
2022/12/26 11:23:22;;;;;;;4.30;1.50;;;10.60;99.90;;;;;;5071090;28;20809;-58
2022/12/26 11:25:51;;;;;;;4.82;1.65;;;10.40;99.90;;;;;;5063530;28;20417;-56
2022/12/26 11:28:26;;;;;;;5.10;1.15;;;10.50;99.90;;;;;;5062291;28;20411;-56
2022/12/26 11:30:53;;;;;;;3.80;1.42;;;10.60;99.90;;;;;;5069399;28;20768;-61
2022/12/26 11:33:24;;;;;;;3.92;1.40;;;10.60;99.90;;;;;;5071441;28;20411;-58
2022/12/26 11:35:59;;;;;;;5.38;1.70;;;10.60;99.90;;;;;;5071373;28;20415;-60
2022/12/26 11:38:38;;;;;;;4.80;1.80;;;10.50;99.90;;;;;;5071708;28;20503;-58
2022/12/26 11:43:57;;;;;;;1.95;1.30;;;10.50;99.90;;;;;;5071182;28;20976;-56
2022/12/26 11:46:32;;;;;;;3.35;1.13;;;10.50;99.90;;;;;;5070759;28;20407;-60
2022/12/26 11:48:59;;;;;;;3.55;1.45;;;10.60;99.90;;;;;;5070599;28;20424;-57
2022/12/26 11:51:40;;;;;;;3.40;1.38;;;10.60;99.90;;;;;;5071243;28;20484;-53
2022/12/26 11:54:20;;;;;;;3.50;1.40;;;10.60;99.90;;;;;;5070512;28;20439;-60
2022/12/26 11:56:47;;;;;;;3.60;1.73;;;10.60;99.90;;;;;;5062419;28;20828;-58
2022/12/26 11:59:19;;;;;;;7.05;3.05;;;10.60;99.90;;;;;;5071008;28;20418;-58
2022/12/26 12:01:46;;;;;;;4.93;1.45;;;10.70;99.90;;;;;;5071025;28;20465;-59
2022/12/26 12:04:13;;;;;;;4.60;1.50;;;10.60;99.90;;;;;;5070796;28;20514;-58
2022/12/26 12:06:56;;;;;;;2.28;1.15;;;10.70;99.90;;;;;;5070506;28;20888;-57
2022/12/26 12:09:34;;;;;;;4.63;1.38;;;10.70;99.90;;;;;;5070753;28;20411;-60
2022/12/26 12:12:08;;;;;;;3.50;1.23;;;10.70;99.90;;;;;;5070934;28;20415;-59
2022/12/26 12:14:49;;;;;;;3.30;1.40;;;10.60;99.90;;;;;;5070675;28;20411;-60
2022/12/26 12:17:25;;;;;;;2.58;1.30;;;10.60;99.90;;;;;;5070099;28;20917;-60
2022/12/26 12:20:05;;;;;;;3.42;1.55;;;10.50;99.90;;;;;;5069381;28;20412;-63
2022/12/26 12:23:02;;;;;;;5.57;1.92;;;10.40;99.90;;;;;;5052885;28;20467;-60
2022/12/26 12:25:52;;;;;;;4.35;1.33;;;10.40;99.90;;;;;;5058042;28;20435;-62
2022/12/26 12:28:45;;;;;;;4.10;1.57;;;10.40;99.90;;;;;;5050991;28;20471;-58
2022/12/26 12:31:22;;;;;;;3.40;1.77;;;10.40;99.90;;;;;;5050067;28;20417;-61
2022/12/26 12:33:55;;;;;;;4.05;1.35;;;10.40;99.90;;;;;;5050682;28;20409;-62
2022/12/26 12:36:29;;;;;;;2.88;1.20;;;10.40;99.90;;;;;;5050104;28;20413;-56
2022/12/26 12:39:09;;;;;;;4.60;1.75;;;10.50;99.90;;;;;;5049955;28;20784;-65
2022/12/26 12:41:59;;;;;;;5.35;1.50;;;10.50;99.90;;;;;;5050048;28;20421;-63
2022/12/26 12:44:38;;;;;;;3.05;1.30;;;10.50;99.90;;;;;;5050038;28;20489;-64
2022/12/26 12:47:13;;;;;;;5.18;1.30;;;10.60;99.90;;;;;;5049722;28;20467;-61
2022/12/26 12:49:53;;;;;;;3.78;1.40;;;10.60;99.90;;;;;;5049922;28;20409;-65
2022/12/26 12:52:36;;;;;;;3.58;1.52;;;10.50;99.90;;;;;;5049573;28;20823;-56
2022/12/26 12:55:36;;;;;;;3.40;1.50;;;10.40;99.90;;;;;;5049763;28;20402;-60
2022/12/26 12:58:11;;;;;;;5.23;1.47;;;10.50;99.90;;;;;;5057939;28;20957;-60
2022/12/26 13:00:42;;;;;;;4.70;1.67;;;10.40;99.90;;;;;;5061228;28;20419;-53
2022/12/26 13:03:15;;;;;;;5.00;1.40;;;10.10;99.90;;;;;;5060437;28;20473;-57
2022/12/26 13:05:47;;;;;;;7.38;1.67;;;9.70;99.90;;;;;;5063289;28;21096;-56
2022/12/26 13:08:18;;;;;;;6.05;1.95;;;9.20;99.90;;;;;;5033329;28;20437;-58
2022/12/26 13:10:51;;;;;;;4.60;2.10;;;8.50;99.90;;;;;;5033827;28;20414;-58
2022/12/26 13:13:25;;;;;;;6.35;1.80;;;8.40;99.90;;;;;;5033378;28;20474;-55
2022/12/26 13:15:57;;;;;;;4.55;2.25;;;8.30;99.90;;;;;;5033391;28;20949;-59
2022/12/26 13:18:28;;;;;;;4.80;2.28;;;8.20;99.90;;;;;;5033512;28;20841;-57
2022/12/26 13:20:59;;;;;;;7.65;2.90;;;8.20;99.90;;;;;;5033076;28;20419;-57
2022/12/26 13:26:19;;;;;;;7.72;3.20;;;8.30;99.90;;;;;;5040335;28;20488;-56
2022/12/26 13:28:54;;;;;;;6.00;3.35;;;8.40;99.90;;;;;;5064807;28;20419;-59
2022/12/26 13:31:21;;;;;;;7.82;3.65;;;8.40;99.90;;;;;;5056179;28;20417;-49
2022/12/26 13:33:48;;;;;;;7.13;3.40;;;8.50;99.90;;;;;;5051415;28;20444;-58
2022/12/26 13:36:33;;;;;;;8.73;4.10;;;8.50;99.90;;;;;;5050942;28;20835;-53
2022/12/26 13:39:31;;;;;;;11.57;5.20;;;8.40;99.90;;;;;;5052998;28;20671;-57
2022/12/26 13:44:51;;;;;;;11.25;5.40;;;8.60;99.90;;;;;;5052336;28;20436;-52
2022/12/26 13:47:33;;;;;;;12.05;5.60;;;8.60;99.90;;;;;;5052747;28;20823;-52
2022/12/26 13:50:33;;;;;;;11.95;5.40;;;8.70;99.90;;;;;;5053053;28;20437;-57
2022/12/26 13:53:00;;;;;;;14.07;6.50;;;8.70;99.90;;;;;;5052128;28;20416;-58
2022/12/26 13:55:41;;;;;;;12.07;6.47;;;8.80;99.90;;;;;;5052443;28;20949;-56
2022/12/26 13:58:26;;;;;;;14.43;6.60;;;8.80;99.90;;;;;;5063239;28;20443;-57
2022/12/26 14:00:56;;;;;;;13.07;7.32;;;8.70;99.90;;;;;;5072120;28;20443;-55
2022/12/26 14:03:45;;;;;;;15.90;7.50;;;8.70;99.90;;;;;;5072269;28;20457;-53
2022/12/26 14:06:50;;;;;;;14.15;7.82;;;8.70;99.90;;;;;;5072346;28;20449;-52
2022/12/26 14:09:38;;;;;;;13.52;7.70;;;8.80;99.90;;;;;;5072001;28;20921;-59
2022/12/26 14:12:24;;;;;;;14.40;8.38;;;8.70;99.90;;;;;;5072130;28;20419;-57
2022/12/26 14:15:03;;;;;;;14.83;8.50;;;8.70;99.90;;;;;;5071843;28;20894;-57
2022/12/26 14:17:41;;;;;;;17.58;8.60;;;8.70;99.90;;;;;;5062794;28;20772;-56
2022/12/26 14:20:23;;;;;;;13.07;6.40;;;8.50;99.90;;;;;;5063592;28;20426;-58
2022/12/26 14:23:02;;;;;;;9.48;5.63;;;8.60;99.90;;;;;;5067564;28;20415;-60
2022/12/26 14:25:35;;;;;;;9.63;5.30;;;8.40;99.90;;;;;;5059371;28;20440;-58
2022/12/26 14:28:11;;;;;;;9.57;4.40;;;8.20;99.90;;;;;;5062172;28;20422;-55
2022/12/26 14:30:54;;;;;;;9.35;3.85;;;8.10;99.90;;;;;;5071599;28;20419;-58
2022/12/26 14:33:29;;;;;;;12.57;4.90;;;8.00;99.90;;;;;;5066663;28;20413;-59
2022/12/26 14:36:07;;;;;;;12.70;4.60;;;7.90;99.90;;;;;;5051562;28;21282;-58
2022/12/26 14:38:45;;;;;;;12.45;4.85;;;8.00;99.90;;;;;;5057607;22;20437;-63
2022/12/26 14:43:55;;;;;;;11.18;4.25;;;8.30;99.90;;;;;;5051432;28;20437;-60
2022/12/26 14:46:58;;;;;;;9.35;4.18;;;8.30;99.90;;;;;;5051474;28;20417;-61
2022/12/26 14:49:38;;;;;;;10.10;4.28;;;8.20;99.90;;;;;;5051179;28;20417;-58
2022/12/26 14:52:32;;;;;;;9.65;4.25;;;8.10;99.90;;;;;;5051148;28;20425;-64
2022/12/26 14:54:59;;;;;;;11.25;4.07;;;8.00;99.90;;;;;;5056830;28;20412;-63
2022/12/26 14:57:53;;;;;;;11.70;3.90;;;8.00;99.90;;;;;;5051860;28;20730;-63
2022/12/26 15:00:42;;;;;;;10.57;3.77;;;8.10;99.90;;;;;;5032743;28;20228;-62
2022/12/26 15:03:34;;;;;;;11.73;3.33;;;7.90;99.90;;;;;;5033096;28;20202;-63
2022/12/26 15:06:36;;;;;;;13.03;3.50;;;7.80;99.90;;;;;;5039061;28;20789;-64
2022/12/26 15:09:18;;;;;;;8.03;3.30;;;7.90;99.90;;;;;;5064167;28;20229;-64
2022/12/26 15:12:17;;;;;;;7.13;3.10;;;7.90;99.90;;;;;;5071908;28;20213;-58
2022/12/26 15:15:03;;;;;;;9.93;2.40;;;8.00;99.90;;;;;;5072378;28;20266;-56
2022/12/26 15:17:39;;;;;;;7.40;3.30;;;7.70;99.90;;;;;;5071963;28;20262;-59
2022/12/26 15:20:25;;;;;;;12.40;2.90;;;7.30;99.90;;;;;;5072054;28;20675;-57
2022/12/26 15:23:32;;;;;;;10.23;2.97;;;7.10;99.90;;;;;;5071852;28;20216;-57
2022/12/26 15:26:24;;;;;;;9.47;3.00;;;7.00;99.90;;;;;;5070072;28;20224;-58
2022/12/26 15:29:28;;;;;;;12.57;4.13;;;6.90;99.90;;;;;;5050897;28;20609;-58